createdAt,value
2023-05-05T00:01:29.185Z,3.78
2023-05-05T00:03:55.923Z,3.40
2023-05-05T00:06:22.997Z,3.20
2023-05-05T00:08:49.608Z,3.80
2023-05-05T00:11:16.512Z,3.70
2023-05-05T00:13:43.154Z,3.78
2023-05-05T00:16:09.812Z,4.20
2023-05-05T00:18:36.567Z,3.03
2023-05-05T00:21:04.536Z,3.47
2023-05-05T00:23:31.187Z,3.70
2023-05-05T00:25:57.805Z,3.60
2023-05-05T00:28:24.415Z,3.83
2023-05-05T00:30:51.234Z,3.90
2023-05-05T00:33:18.023Z,3.40
2023-05-05T00:35:44.654Z,3.58
2023-05-05T00:38:11.323Z,3.25
2023-05-05T00:40:38.390Z,4.35
2023-05-05T00:43:05.337Z,3.25
2023-05-05T00:45:32.114Z,4.43
2023-05-05T00:48:00.896Z,3.90
2023-05-05T00:50:30.455Z,4.13
2023-05-05T00:53:02.839Z,4.38
2023-05-05T00:55:30.755Z,4.47
2023-05-05T00:57:58.529Z,3.70
2023-05-05T01:00:25.994Z,3.80
2023-05-05T01:02:52.972Z,3.70
2023-05-05T01:05:22.188Z,4.30
2023-05-05T01:07:59.302Z,3.78
2023-05-05T01:10:33.700Z,3.50
2023-05-05T01:13:05.218Z,3.80
2023-05-05T01:15:40.554Z,3.50
2023-05-05T01:18:15.033Z,3.50
2023-05-05T01:21:03.589Z,3.40
2023-05-05T01:23:53.378Z,3.70
2023-05-05T01:26:49.083Z,3.40
2023-05-05T01:29:38.975Z,4.00
2023-05-05T01:32:12.896Z,3.37
2023-05-05T01:34:45.386Z,3.85
2023-05-05T01:37:18.334Z,3.83
2023-05-05T01:39:50.935Z,3.30
2023-05-05T01:42:18.708Z,3.83
2023-05-05T01:44:47.506Z,3.50
2023-05-05T01:47:16.891Z,3.83
2023-05-05T01:49:46.595Z,3.95
2023-05-05T01:52:15.168Z,3.22
2023-05-05T01:54:44.103Z,3.70
2023-05-05T01:57:12.089Z,3.58
2023-05-05T01:59:39.794Z,3.63
2023-05-05T02:02:09.273Z,4.03
2023-05-05T02:04:40.761Z,3.67
2023-05-05T02:07:08.906Z,3.75
2023-05-05T02:09:37.615Z,3.75
2023-05-05T02:12:05.476Z,3.38
2023-05-05T02:14:34.081Z,3.88
2023-05-05T02:17:02.066Z,3.70
2023-05-05T02:19:55.699Z,3.70
2023-05-05T02:22:22.464Z,3.90
2023-05-05T02:24:49.646Z,4.10
2023-05-05T02:27:18.967Z,3.67
2023-05-05T02:29:52.951Z,4.07
2023-05-05T02:32:24.083Z,4.65
2023-05-05T02:34:54.464Z,3.90
2023-05-05T02:37:24.684Z,4.03
2023-05-05T02:40:00.462Z,3.80
2023-05-05T02:42:32.196Z,3.78
2023-05-05T02:45:02.020Z,4.43
2023-05-05T02:47:35.654Z,3.70
2023-05-05T02:50:03.965Z,3.90
2023-05-05T02:52:31.214Z,4.38
2023-05-05T02:54:59.029Z,3.95
2023-05-05T02:57:34.423Z,3.40
2023-05-05T03:00:10.392Z,4.32
2023-05-05T03:02:42.974Z,3.78
2023-05-05T03:05:13.421Z,3.92
2023-05-05T03:08:02.545Z,3.95
2023-05-05T03:10:32.028Z,3.97
2023-05-05T03:13:00.907Z,4.00
2023-05-05T03:15:35.527Z,3.90
2023-05-05T03:18:03.985Z,4.05
2023-05-05T03:20:31.225Z,4.10
2023-05-05T03:22:58.007Z,4.53
2023-05-05T03:25:41.796Z,3.85
2023-05-05T03:28:08.414Z,4.22
2023-05-05T03:30:35.236Z,4.40
2023-05-05T03:33:02.087Z,4.28
2023-05-05T03:35:28.953Z,4.45
2023-05-05T03:37:58.045Z,3.88
2023-05-05T03:40:36.215Z,4.35
2023-05-05T03:43:10.337Z,4.30
2023-05-05T03:45:36.973Z,4.22
2023-05-05T03:48:03.750Z,4.18
2023-05-05T03:50:30.604Z,4.68
2023-05-05T03:52:57.197Z,4.15
2023-05-05T03:55:24.542Z,4.10
2023-05-05T03:57:51.557Z,4.32
2023-05-05T04:00:18.605Z,4.38
2023-05-05T04:02:45.420Z,4.10
2023-05-05T04:05:12.312Z,4.20
2023-05-05T04:07:38.908Z,4.03
2023-05-05T04:10:06.885Z,4.40
2023-05-05T04:12:33.790Z,4.78
2023-05-05T04:15:00.479Z,5.00
2023-05-05T04:17:27.062Z,4.72
2023-05-05T04:19:54.142Z,4.53
2023-05-05T04:22:20.770Z,4.70
2023-05-05T04:24:47.612Z,4.70
2023-05-05T04:27:14.277Z,4.93
2023-05-05T04:29:41.315Z,4.40
2023-05-05T04:32:07.915Z,4.53
2023-05-05T04:34:34.571Z,5.60
2023-05-05T04:37:01.726Z,5.18
2023-05-05T04:39:28.428Z,5.53
2023-05-05T04:41:55.281Z,5.53
2023-05-05T04:44:21.876Z,5.03
2023-05-05T04:46:48.494Z,5.05
2023-05-05T04:49:15.227Z,5.43
2023-05-05T04:51:42.348Z,5.90
2023-05-05T04:54:09.087Z,5.88
2023-05-05T04:56:35.946Z,5.95
2023-05-05T04:59:02.628Z,5.72
2023-05-05T05:01:29.379Z,5.90
2023-05-05T05:03:56.310Z,5.55
2023-05-05T05:06:23.024Z,5.22
2023-05-05T05:08:49.597Z,5.45
2023-05-05T05:11:16.380Z,5.60
2023-05-05T05:13:43.014Z,5.22
2023-05-05T05:16:09.813Z,5.22
2023-05-05T05:18:36.632Z,5.68
2023-05-05T05:21:03.539Z,5.38
2023-05-05T05:23:30.685Z,5.55
2023-05-05T05:25:57.726Z,5.32
2023-05-05T05:28:24.353Z,6.20
2023-05-05T05:30:52.118Z,5.72
2023-05-05T05:33:19.011Z,6.25
2023-05-05T05:35:45.936Z,5.65
2023-05-05T05:38:12.592Z,6.10
2023-05-05T05:40:39.410Z,6.93
2023-05-05T05:43:06.454Z,5.85
2023-05-05T05:45:33.101Z,6.32
2023-05-05T05:48:00.492Z,6.28
2023-05-05T05:50:28.688Z,6.47
2023-05-05T05:52:55.722Z,5.72
2023-05-05T05:55:22.660Z,6.45
2023-05-05T05:57:49.211Z,5.90
2023-05-05T06:00:16.174Z,6.10
2023-05-05T06:02:42.924Z,6.13
2023-05-05T06:05:10.677Z,6.18
2023-05-05T06:07:37.365Z,5.43
2023-05-05T06:10:15.004Z,6.00
2023-05-05T06:12:51.578Z,5.32
2023-05-05T06:15:18.199Z,5.40
2023-05-05T06:17:44.765Z,5.20
2023-05-05T06:20:13.863Z,5.05
2023-05-05T06:22:40.687Z,4.88
2023-05-05T06:25:07.640Z,4.88
2023-05-05T06:27:34.412Z,4.75
2023-05-05T06:30:01.381Z,5.13
2023-05-05T06:32:27.993Z,5.68
2023-05-05T06:34:54.598Z,5.47
2023-05-05T06:37:21.373Z,4.80
2023-05-05T06:39:48.978Z,5.63
2023-05-05T06:42:15.881Z,5.32
2023-05-05T06:44:42.804Z,5.22
2023-05-05T06:47:09.488Z,6.00
2023-05-05T06:49:36.584Z,5.25
2023-05-05T06:52:03.395Z,5.90
2023-05-05T06:54:30.013Z,5.63
2023-05-05T06:56:59.335Z,5.55
2023-05-05T06:59:26.875Z,6.28
2023-05-05T07:01:53.549Z,5.53
2023-05-05T07:04:21.383Z,5.75
2023-05-05T07:06:48.135Z,5.90
2023-05-05T07:09:16.884Z,6.30
2023-05-05T07:11:43.751Z,5.35
2023-05-05T07:14:10.479Z,5.30
2023-05-05T07:16:37.373Z,5.30
2023-05-05T07:19:06.929Z,4.75
2023-05-05T07:21:37.128Z,4.63
2023-05-05T07:24:04.148Z,5.20
2023-05-05T07:26:31.082Z,4.60
2023-05-05T07:28:59.104Z,4.97
2023-05-05T07:31:26.748Z,5.45
2023-05-05T07:33:53.697Z,4.70
2023-05-05T07:36:20.719Z,5.55
2023-05-05T07:38:47.275Z,5.10
2023-05-05T07:41:14.004Z,4.32
2023-05-05T07:43:44.661Z,5.18
2023-05-05T07:46:12.076Z,4.82
2023-05-05T07:48:41.515Z,4.70
2023-05-05T07:51:08.690Z,4.82
2023-05-05T07:53:35.423Z,4.65
2023-05-05T07:56:02.175Z,5.32
2023-05-05T07:58:28.907Z,5.45
2023-05-05T08:00:55.528Z,5.15
2023-05-05T08:03:24.498Z,5.68
2023-05-05T08:05:54.547Z,5.55
2023-05-05T08:08:24.921Z,6.17
2023-05-05T08:10:53.280Z,5.93
2023-05-05T08:13:20.688Z,5.85
2023-05-05T08:15:47.816Z,6.10
2023-05-05T08:18:14.960Z,6.32
2023-05-05T08:20:41.808Z,5.75
2023-05-05T08:23:08.560Z,6.15
2023-05-05T08:25:35.111Z,6.75
2023-05-05T08:28:01.805Z,6.50
2023-05-05T08:30:28.720Z,6.30
2023-05-05T08:32:55.611Z,6.93
2023-05-05T08:35:22.465Z,6.97
2023-05-05T08:37:51.149Z,7.28
2023-05-05T08:40:17.841Z,7.38
2023-05-05T08:42:47.364Z,7.28
2023-05-05T08:45:14.441Z,7.25
2023-05-05T08:47:43.117Z,6.93
2023-05-05T08:50:11.358Z,7.40
2023-05-05T08:52:44.335Z,7.15
2023-05-05T08:55:25.565Z,7.80
2023-05-05T08:58:04.183Z,7.90
2023-05-05T09:00:31.567Z,7.93
2023-05-05T09:03:00.131Z,8.48
2023-05-05T09:05:27.345Z,8.73
2023-05-05T09:07:54.015Z,8.23
2023-05-05T09:10:21.009Z,8.48
2023-05-05T09:12:49.607Z,7.88
2023-05-05T09:15:16.544Z,8.35
2023-05-05T09:17:43.975Z,8.23
2023-05-05T09:20:12.463Z,9.25
2023-05-05T09:22:47.264Z,8.52
2023-05-05T09:25:18.438Z,8.57
2023-05-05T09:27:47.520Z,8.88
2023-05-05T09:30:25.042Z,8.52
2023-05-05T09:32:54.432Z,8.85
2023-05-05T09:35:22.608Z,8.50
2023-05-05T09:37:49.646Z,9.63
2023-05-05T09:40:18.176Z,8.70
2023-05-05T09:42:45.207Z,8.80
2023-05-05T09:45:17.987Z,7.80
2023-05-05T09:47:46.441Z,8.80
2023-05-05T09:50:18.981Z,8.15
2023-05-05T09:53:03.121Z,8.43
2023-05-05T09:55:33.139Z,9.38
2023-05-05T09:58:29.880Z,9.27
2023-05-05T10:00:58.720Z,9.55
2023-05-05T10:03:26.075Z,9.60
2023-05-05T10:05:55.837Z,10.07
2023-05-05T10:08:28.035Z,10.63
2023-05-05T10:10:56.273Z,11.60
2023-05-05T10:13:24.379Z,11.70
2023-05-05T10:15:56.189Z,11.82
2023-05-05T10:18:27.518Z,11.85
2023-05-05T10:20:57.500Z,12.25
2023-05-05T10:23:29.106Z,12.88
2023-05-05T10:26:17.102Z,12.68
2023-05-05T10:28:56.532Z,12.90
2023-05-05T10:31:53.016Z,12.80
2023-05-05T10:34:58.302Z,11.38
2023-05-05T10:37:26.681Z,11.15
2023-05-05T10:39:55.997Z,12.00
2023-05-05T10:42:23.676Z,11.95
2023-05-05T10:44:51.498Z,11.70
2023-05-05T10:47:20.189Z,12.05
2023-05-05T10:50:21.914Z,11.48
2023-05-05T10:53:12.811Z,11.13
2023-05-05T10:55:48.345Z,11.52
2023-05-05T10:58:59.121Z,10.80
2023-05-05T11:01:34.682Z,9.93
2023-05-05T11:04:24.363Z,12.18
2023-05-05T11:07:13.399Z,11.45
2023-05-05T11:09:58.579Z,12.00
2023-05-05T11:12:25.390Z,11.05
2023-05-05T11:15:26.288Z,11.80
2023-05-05T11:17:54.686Z,9.82
2023-05-05T11:20:36.966Z,9.13
2023-05-05T11:23:21.883Z,8.38
2023-05-05T11:25:51.497Z,8.57
2023-05-05T11:28:21.025Z,7.50
2023-05-05T11:30:57.780Z,8.95
2023-05-05T11:33:31.502Z,7.18
2023-05-05T11:35:59.849Z,7.60
2023-05-05T11:38:37.321Z,7.35
2023-05-05T11:41:18.273Z,7.85
2023-05-05T11:43:45.181Z,8.10
2023-05-05T11:46:16.856Z,8.15
2023-05-05T11:48:48.124Z,7.75
2023-05-05T11:51:16.549Z,5.97
2023-05-05T11:53:44.897Z,6.05
2023-05-05T11:56:14.518Z,6.97
2023-05-05T11:58:42.115Z,7.35
2023-05-05T12:01:08.996Z,7.00
2023-05-05T12:03:39.560Z,7.05
2023-05-05T12:06:07.562Z,5.90
2023-05-05T12:08:38.221Z,5.97
2023-05-05T12:11:09.686Z,5.30
2023-05-05T14:59:39.900Z,4.13
2023-05-05T15:02:06.775Z,5.15
2023-05-05T15:04:33.396Z,4.85
2023-05-05T15:07:00.147Z,4.78
2023-05-05T15:09:27.223Z,5.13
2023-05-05T15:11:53.867Z,5.47
2023-05-05T15:14:20.579Z,5.28
2023-05-05T15:16:47.393Z,5.43
2023-05-05T15:19:13.995Z,4.45
2023-05-05T15:21:40.860Z,4.63
2023-05-05T15:24:07.669Z,4.80
2023-05-05T15:26:34.276Z,4.93
2023-05-05T15:29:00.884Z,4.40
2023-05-05T15:31:27.605Z,4.32
2023-05-05T15:33:54.286Z,4.45
2023-05-05T15:36:22.759Z,4.10
2023-05-05T15:38:49.494Z,3.60
2023-05-05T15:41:16.384Z,3.90
2023-05-05T15:43:43.113Z,3.80
2023-05-05T15:46:09.672Z,3.25
2023-05-05T15:48:36.312Z,3.58
2023-05-05T15:51:03.003Z,3.53
2023-05-05T15:53:29.679Z,5.55
2023-05-05T15:55:56.277Z,3.90
2023-05-05T15:58:23.262Z,4.13
2023-05-05T16:00:50.025Z,4.40
2023-05-05T16:03:16.852Z,4.10
2023-05-05T16:05:43.536Z,3.47
2023-05-05T16:08:10.943Z,5.20
2023-05-05T16:10:37.729Z,4.13
2023-05-05T16:13:04.548Z,6.22
2023-05-05T16:15:31.408Z,3.70
2023-05-05T16:17:58.044Z,5.78
2023-05-05T16:20:24.715Z,3.50
2023-05-05T16:22:51.388Z,4.15
2023-05-05T16:25:19.822Z,8.13
2023-05-05T16:27:46.693Z,37.40
2023-05-05T16:30:15.412Z,5.47
2023-05-05T16:32:42.267Z,3.40
2023-05-05T16:35:09.457Z,3.65
2023-05-05T16:37:36.615Z,2.88
2023-05-05T16:40:05.464Z,2.40
2023-05-05T16:42:32.267Z,2.35
2023-05-05T16:44:58.824Z,4.68
2023-05-05T16:47:25.558Z,3.17
2023-05-05T16:49:52.664Z,3.30
2023-05-05T16:52:19.288Z,3.20
2023-05-05T16:54:46.507Z,3.40
2023-05-05T16:57:13.739Z,3.55
2023-05-05T16:59:41.873Z,3.95
2023-05-05T17:02:08.707Z,2.80
2023-05-05T17:04:35.460Z,3.28
2023-05-05T17:07:02.101Z,2.35
2023-05-05T17:09:28.673Z,2.40
2023-05-05T17:11:55.465Z,2.20
2023-05-05T17:14:22.179Z,2.97
2023-05-05T17:16:48.821Z,2.53
2023-05-05T17:19:15.547Z,2.72
2023-05-05T17:21:45.638Z,2.85
2023-05-05T17:24:12.306Z,3.00
2023-05-05T17:26:39.814Z,3.15
2023-05-05T17:29:06.440Z,2.97
2023-05-05T17:31:33.201Z,3.30
2023-05-05T17:33:59.881Z,3.05
2023-05-05T17:36:26.433Z,3.08
2023-05-05T17:38:53.173Z,3.00
2023-05-05T17:41:19.852Z,2.85
2023-05-05T17:43:46.482Z,2.75
2023-05-05T17:46:13.187Z,2.70
2023-05-05T17:48:40.032Z,2.55
2023-05-05T17:51:06.718Z,2.70
2023-05-05T17:53:33.451Z,2.40
2023-05-05T17:56:00.304Z,2.72
2023-05-05T17:58:27.336Z,2.85
2023-05-05T18:00:54.056Z,3.08
2023-05-05T18:03:20.943Z,2.70
2023-05-05T18:05:47.792Z,2.50
2023-05-05T18:08:14.444Z,2.50
2023-05-05T18:10:41.277Z,2.55
2023-05-05T18:13:08.013Z,2.65
2023-05-05T18:15:34.712Z,2.70
2023-05-05T18:18:01.567Z,3.08
2023-05-05T18:20:28.320Z,2.47
2023-05-05T18:22:55.003Z,2.85
2023-05-05T18:25:21.836Z,2.83
2023-05-05T18:27:48.473Z,2.33
2023-05-05T18:30:15.651Z,2.60
2023-05-05T18:32:42.514Z,3.08
2023-05-05T18:35:09.881Z,2.60
2023-05-05T18:37:36.828Z,2.70
2023-05-05T18:40:03.790Z,2.78
2023-05-05T18:42:30.489Z,2.80
2023-05-05T18:44:57.060Z,2.90
2023-05-05T18:47:23.810Z,2.63
2023-05-05T18:49:50.500Z,2.80
2023-05-05T18:52:17.179Z,3.13
2023-05-05T18:54:43.897Z,3.42
2023-05-05T18:57:10.725Z,3.92
2023-05-05T18:59:37.433Z,4.03
2023-05-05T19:02:04.251Z,3.83
2023-05-05T19:04:32.228Z,3.13
2023-05-05T19:07:00.125Z,3.72
2023-05-05T19:09:27.628Z,3.42
2023-05-05T19:11:54.325Z,5.22
2023-05-05T19:14:22.179Z,6.25
2023-05-05T19:16:48.958Z,5.40
2023-05-05T19:19:15.745Z,4.85
2023-05-05T19:21:42.447Z,4.53
2023-05-05T19:24:10.108Z,3.58
2023-05-05T19:26:37.053Z,3.80
2023-05-05T19:29:03.706Z,3.88
2023-05-05T19:31:31.401Z,3.20
2023-05-05T19:34:00.880Z,4.25
2023-05-05T19:36:28.019Z,3.45
2023-05-05T19:38:56.056Z,4.05
2023-05-05T19:41:22.886Z,5.18
2023-05-05T19:43:50.060Z,7.10
2023-05-05T19:46:19.592Z,10.60
2023-05-05T19:48:46.587Z,8.32
2023-05-05T19:51:14.008Z,7.80
2023-05-05T19:53:42.863Z,6.70
2023-05-05T19:56:10.343Z,6.50
2023-05-05T19:58:56.710Z,7.15
2023-05-05T20:01:23.818Z,7.20
2023-05-05T20:03:51.370Z,6.15
2023-05-05T20:06:18.598Z,7.13
2023-05-05T20:08:45.311Z,7.05
2023-05-05T20:11:12.410Z,6.13
2023-05-05T20:13:39.165Z,5.70
2023-05-05T20:16:06.616Z,6.10
2023-05-05T20:18:33.682Z,6.43
2023-05-05T20:21:01.876Z,7.03
2023-05-05T20:23:28.680Z,6.30
2023-05-05T20:25:56.018Z,5.47
2023-05-05T20:28:23.098Z,5.93
2023-05-05T20:30:49.823Z,5.32
2023-05-05T20:33:16.461Z,4.97
2023-05-05T20:35:43.183Z,4.80
2023-05-05T20:38:09.879Z,4.65
2023-05-05T20:40:36.840Z,4.13
2023-05-05T20:43:03.650Z,4.47
2023-05-05T20:45:31.780Z,5.22
2023-05-05T20:47:58.777Z,4.60
2023-05-05T20:50:25.873Z,5.03
2023-05-05T20:52:52.603Z,4.10
2023-05-05T20:55:19.263Z,4.82
2023-05-05T20:57:46.273Z,4.80
2023-05-05T21:00:13.126Z,4.80
2023-05-05T21:02:40.214Z,4.75
2023-05-05T21:05:07.304Z,4.78
2023-05-05T21:07:34.334Z,5.38
2023-05-05T21:10:02.501Z,4.05
2023-05-05T21:12:30.153Z,4.53
2023-05-05T21:14:58.908Z,5.40
2023-05-05T21:17:26.872Z,4.35
2023-05-05T21:19:53.811Z,4.70
2023-05-05T21:22:20.973Z,5.75
2023-05-05T21:24:48.460Z,5.70
2023-05-05T21:27:15.621Z,5.03
2023-05-05T21:29:42.280Z,5.30
2023-05-05T21:32:10.348Z,5.13
2023-05-05T21:34:38.044Z,5.10
2023-05-05T21:37:06.142Z,5.50
2023-05-05T21:39:33.274Z,5.30
2023-05-05T21:42:01.032Z,4.88
2023-05-05T21:44:28.393Z,5.53
2023-05-05T21:46:55.688Z,6.15
2023-05-05T21:49:23.094Z,5.30
2023-05-05T21:51:50.250Z,5.00
2023-05-05T21:54:16.976Z,5.40
2023-05-05T21:56:43.747Z,5.30
2023-05-05T21:59:11.053Z,5.90
2023-05-05T22:01:37.851Z,6.03
2023-05-05T22:04:04.777Z,7.20
2023-05-05T22:06:32.506Z,6.05
2023-05-05T22:08:59.122Z,5.93
2023-05-05T22:11:25.962Z,5.15
2023-05-05T22:13:52.631Z,5.35
2023-05-05T22:16:19.434Z,5.45
2023-05-05T22:18:46.275Z,4.97
2023-05-05T22:21:12.991Z,6.07
2023-05-05T22:23:41.903Z,5.88
2023-05-05T22:26:09.809Z,5.85
2023-05-05T22:28:36.578Z,5.53
2023-05-05T22:31:04.669Z,5.70
2023-05-05T22:33:31.509Z,6.28
2023-05-05T22:35:58.296Z,5.82
2023-05-05T22:38:24.925Z,6.45
2023-05-05T22:40:52.174Z,6.72
2023-05-05T22:43:19.281Z,6.70
2023-05-05T22:45:46.119Z,6.15
2023-05-05T22:48:12.834Z,6.38
2023-05-05T22:50:39.649Z,6.15
2023-05-05T22:53:07.489Z,6.57
2023-05-05T22:55:34.386Z,6.85
2023-05-05T22:58:01.446Z,6.78
2023-05-05T23:00:28.332Z,7.60
2023-05-05T23:02:55.271Z,6.93
2023-05-05T23:05:22.105Z,7.07
2023-05-05T23:07:48.916Z,7.32
2023-05-05T23:10:15.610Z,6.68
2023-05-05T23:12:42.384Z,6.85
2023-05-05T23:15:09.986Z,7.03
2023-05-05T23:17:36.990Z,6.82
2023-05-05T23:20:04.338Z,6.72
2023-05-05T23:22:30.920Z,6.28
2023-05-05T23:24:57.611Z,6.82
2023-05-05T23:27:24.262Z,6.38
2023-05-05T23:29:50.830Z,6.55
2023-05-05T23:32:17.736Z,6.28
2023-05-05T23:34:44.361Z,6.45
2023-05-05T23:37:14.300Z,6.85
2023-05-05T23:39:41.932Z,7.43
2023-05-05T23:42:08.768Z,7.10
2023-05-05T23:44:35.393Z,6.88
2023-05-05T23:47:02.182Z,6.80
2023-05-05T23:49:28.806Z,7.70
2023-05-05T23:51:55.760Z,7.10
2023-05-05T23:54:22.438Z,7.70
2023-05-05T23:56:49.049Z,6.68
2023-05-05T23:59:15.708Z,7.78
